Kezdőlap
METAR-TAF:

METAR-TAF

Repülőterek :

Vinnicja, Ukrajna

földrajzi szélesség: 49-14-23N, földrajzi hosszúság: 028-36-50E, magasság: 974 m

Jelenlegi meteorológiai megfigyelések

A jelentés 6 órával és 53 perccel ezelõtt készült, 17:00 UTC
Nyugati szél 6 kt
Hőmérséklet 13°C
Páratartalom 82%
Légköri nyomás 1014 hPa
Látótávolság 10 km, vagy több
felhőtlen 1500 m magasságban, és nincs gomolyfelhõ

METAR: UKWW 241700Z 26003MPS CAVOK 13/10 Q1014 NOSIG

Idő: 02:53 (23:53 UTC)

Előrejelzés

A jelentés 9 órával és 52 perccel ezelõtt készült, 14:01 UTC
Az előrejelzés 24-én 15 óra UTC és 24-én 24 óra UTC között érvényes
Nyugat-délnyugati szél 10 kt
Látótávolság 10 km, vagy több
Szakadozott felhőzet 3000 lábon

TAF: UKWW 241401Z 2415/2424 24005MPS 9999 BKN030

Meteorológiai megfigyelések és előrejelzések több, mint 4000 repülőtéren (METAR és TAF jelentéseket).

A térképen piros és sárga pontok jelzik az elérhető meteorológiai állomásokat.

Mozgassa az egeret a pont fölött, hogy megjelenjen az állomás neve.

Azután kattintson az időjárási megfigyelések és előrejelzések megtekintéséhez.

A térkép megváltoztatása: kattintson a fekete keresztel jelölt zöld gombra ráközelítéshez, a vonallal jelölt zöld gombra távolításhoz, vagy a zöld nyilakra a szomszédos térképek eléréséhez.


METAR-TAF: